Latest Weather Observations for Hogan Island

IDV60801

Issued at 5:05 pm EDT Wednesday 22 October 2014 (issued every 30 minutes, with the page automatically refreshed every 10 minutes)

About weather observations | Map of weather stations | Latest weather observations for VIC | Other Formats
Station Details ID: 200838 Name: HOGAN ISLAND Lat: -39.22 Lon: 146.98 Height: 116.0 m
Data from the previous 72 hours. | See also: Recent months at Hogan Island
Date/Time
EDT
Temp
°C
App
Temp
°C
Dew
Point
Rel
Hum
%
Delta-T
°C
Wind Press
QNH
hPa
Press
MSL
hPa
Rain
since 9 am
mm
Dir
 
Spd
km/h
Gust
km/h
Spd
kts
Gust
kts
22/05:00pm 17.7 15.5 13.2 75 2.5 NE 17 20 9 11 1015.8 - 0.0
22/04:30pm 17.3 14.9 12.8 75 2.5 NE 17 20 9 11 1016.1 - 0.0
22/04:00pm 18.2 16.1 13.5 74 2.7 NE 17 20 9 11 1016.7 - 0.0
22/03:30pm 18.2 16.0 13.3 73 2.8 NE 17 20 9 11 1016.7 - 0.0
22/03:00pm 18.3 16.8 13.0 71 3.0 NE 13 15 7 8 1017.1 1017.1 0.0
22/02:30pm 18.2 16.3 12.9 71 3.0 NE 15 19 8 10 1017.5 - 0.0
22/02:00pm 18.5 16.6 12.9 70 3.2 NE 15 19 8 10 1017.6 - 0.0
22/01:30pm 18.5 16.2 12.9 70 3.2 NE 17 20 9 11 1018.0 - 0.0
22/01:00pm 18.5 15.8 12.9 70 3.2 NE 19 24 10 13 1018.2 - 0.0
22/12:30pm 18.6 15.3 12.8 69 3.3 NNE 22 30 12 16 1018.5 - 0.0
22/12:00pm 18.5 15.2 12.9 70 3.2 NNE 22 26 12 14 1019.1 1019.2 0.0
22/11:30am 17.8 14.8 12.7 72 2.9 NE 20 28 11 15 1019.5 - 0.0
22/11:00am 17.7 14.3 12.4 71 3.0 NNE 22 35 12 19 1019.9 - 0.0
22/10:30am 18.4 15.6 12.6 69 3.3 N 19 26 10 14 1020.2 - 0.0
22/10:00am 16.9 15.1 14.5 86 1.4 NNE 17 22 9 12 1020.2 - 0.0
22/09:30am 16.6 15.5 15.3 92 0.8 NE 15 20 8 11 1020.1 - 0.0
22/09:00am 15.2 13.0 14.4 95 0.5 NNE 19 24 10 13 1020.1 1020.1 0.0
22/08:30am 14.5 11.9 13.7 95 0.4 NE 20 24 11 13 1020.1 - 0.0
22/08:00am 13.5 10.2 12.9 96 0.3 NE 22 26 12 14 1020.3 - 0.0
22/07:30am 13.5 10.2 12.9 96 0.3 NE 22 26 12 14 1020.3 - 0.0
22/07:00am 13.1 9.7 12.5 96 0.3 NE 22 26 12 14 1020.4 - 0.0
22/06:30am 12.5 8.2 11.9 96 0.3 ENE 26 28 14 15 1020.3 - 0.0
22/06:00am 12.4 8.0 11.8 96 0.3 ENE 26 28 14 15 1020.3 1020.3 0.0
22/05:30am 12.4 8.0 11.6 95 0.4 ENE 26 28 14 15 1020.4 - 0.0
22/05:00am 12.4 7.6 11.6 95 0.4 ENE 28 30 15 16 1020.5 - 0.0
22/04:30am 12.2 7.3 11.4 95 0.4 ENE 28 30 15 16 1020.8 - 0.0
22/04:00am 12.3 7.5 11.5 95 0.4 ENE 28 30 15 16 1021.2 - 0.0
22/03:30am 12.4 7.2 11.5 94 0.5 ENE 30 32 16 17 1021.6 - 0.0
22/03:00am 12.5 6.9 11.6 94 0.5 ENE 32 35 17 19 1022.0 1022.0 0.0
22/02:30am 12.6 6.9 11.7 94 0.5 ENE 33 39 18 21 1022.5 - 0.0
22/02:00am 12.6 6.4 11.5 93 0.6 ENE 35 41 19 22 1022.9 - 0.0
22/01:30am 12.6 5.7 11.5 93 0.6 ENE 39 43 21 23 1023.4 - 0.0
22/01:00am 12.7 5.7 11.4 92 0.7 ENE 39 46 21 25 1024.0 - 0.0
22/12:30am 12.6 5.6 11.2 91 0.7 ENE 39 46 21 25 1024.6 - 0.0
22/12:00am 12.8 5.5 11.4 91 0.7 ENE 41 48 22 26 1024.9 1025.0 0.0
 
Date/Time
EDT
Temp
°C
App
Temp
°C
Dew
Point
Rel
Hum
%
Delta-T
°C
Wind Press
QNH
hPa
Press
MSL
hPa
Rain
since 9 am
mm
Dir
 
Spd
km/h
Gust
km/h
Spd
kts
Gust
kts
21/11:30pm 12.7 4.7 11.1 90 0.8 ENE 44 50 24 27 1025.1 - 0.0
21/11:00pm 12.7 4.7 11.1 90 0.8 ENE 44 50 24 27 1025.6 - 0.0
21/10:30pm 12.8 4.4 10.9 88 1.0 ENE 46 54 25 29 1025.7 - 0.0
21/10:00pm 12.9 3.3 10.8 87 1.1 ENE 52 59 28 32 1025.8 - 0.0
21/09:30pm 12.8 4.7 10.7 87 1.1 ENE 44 52 24 28 1026.2 - 0.0
21/09:00pm 12.8 4.6 10.5 86 1.2 ENE 44 50 24 27 1026.3 1026.4 0.0
21/08:30pm 12.7 4.4 10.1 84 1.3 ENE 44 50 24 27 1026.4 - 0.0
21/08:00pm 12.8 3.6 9.6 81 1.6 ENE 48 57 26 31 1026.3 - 0.0
21/07:30pm 12.9 3.7 9.5 80 1.7 E 48 56 26 30 1026.2 - 0.0
21/07:00pm 13.1 3.9 9.4 78 1.9 E 48 57 26 31 1026.2 - 0.0
21/06:30pm 13.5 4.7 9.6 77 2.0 E 46 54 25 29 1026.3 - 0.0
21/06:00pm 13.9 4.6 9.3 74 2.3 E 48 59 26 32 1026.5 1026.6 0.0
21/05:30pm 14.3 5.4 9.3 72 2.6 E 46 54 25 29 1026.7 - 0.0
21/05:00pm 14.9 6.5 9.5 70 2.8 E 44 56 24 30 1027.2 - 0.0
21/04:30pm 15.0 5.7 9.1 68 3.0 E 48 57 26 31 1027.1 - 0.0
21/04:00pm 15.4 6.1 9.3 67 3.2 ENE 48 56 26 30 1027.5 - 0.0
21/03:30pm 16.0 7.2 9.7 66 3.3 E 46 56 25 30 1027.7 - 0.0
21/03:00pm 15.8 7.0 9.5 66 3.3 E 46 56 25 30 1027.9 1028.0 0.0
21/02:30pm 16.4 7.1 9.3 63 3.7 ENE 48 54 26 29 1028.5 - 0.0
21/02:00pm 16.9 8.2 10.1 64 3.6 ENE 46 54 25 29 1029.2 - 0.0
21/01:30pm 16.5 8.4 9.9 65 3.5 ENE 43 50 23 27 1029.5 - 0.0
21/01:00pm 17.1 8.8 10.2 64 3.7 ENE 44 50 24 27 1029.6 - 0.0
21/12:30pm 16.7 8.3 9.6 63 3.7 ENE 44 52 24 28 1029.8 - 0.0
21/12:00pm 16.8 8.1 10.0 64 3.6 ENE 46 54 25 29 1029.9 1029.9 0.0
21/11:30am 16.3 5.9 9.3 63 3.6 ENE 54 61 29 33 1029.7 - 0.0
21/11:00am 16.3 6.3 9.3 63 3.6 ENE 52 59 28 32 1030.2 - 0.0
21/10:30am 16.0 6.2 8.7 62 3.7 ENE 50 57 27 31 1030.6 - 0.0
21/10:00am 15.9 6.5 8.9 63 3.6 ENE 48 56 26 30 1030.8 - 0.0
21/09:30am 15.2 5.3 8.2 63 3.5 ENE 50 57 27 31 1030.7 - 0.0
21/09:00am 14.9 4.2 7.9 63 3.5 ENE 54 63 29 34 1030.5 1030.5 0.0
21/08:30am 14.4 4.0 7.9 65 3.2 ENE 52 59 28 32 1030.3 - 0.0
21/08:00am 13.9 3.6 8.1 68 2.9 ENE 52 57 28 31 1030.1 - 0.0
21/07:30am 13.3 2.4 7.3 67 2.9 ENE 54 65 29 35 1029.8 - 0.0
21/07:00am 12.7 1.4 7.2 69 2.7 ENE 56 65 30 35 1029.5 - 0.0
21/06:30am 12.5 2.5 8.0 74 2.2 ENE 50 56 27 30 1029.8 - 0.0
21/06:00am 12.4 2.0 7.9 74 2.2 E 52 63 28 34 1029.3 1029.3 0.0
21/05:30am 12.0 1.0 6.9 71 2.5 E 54 65 29 35 1029.2 - 0.0
21/05:00am 11.8 2.0 6.9 72 2.4 E 48 65 26 35 1029.3 - 0.0
21/04:30am 11.8 1.6 6.9 72 2.4 E 50 59 27 32 1029.5 - 0.0
21/04:00am 11.9 1.6 6.4 69 2.6 E 50 59 27 32 1029.7 - 0.0
21/03:30am 11.8 1.5 6.3 69 2.6 E 50 59 27 32 1030.0 - 0.0
21/03:00am 11.8 0.3 6.1 68 2.7 ENE 56 65 30 35 1030.2 1030.2 0.0
21/02:30am 11.9 1.3 7.0 72 2.4 E 52 61 28 33 1030.4 - 0.0
21/02:00am 11.8 1.6 6.9 72 2.4 E 50 59 27 32 1030.8 - 0.0
21/01:30am 11.7 1.8 6.4 70 2.5 E 48 59 26 32 1031.3 - 0.0
21/01:00am 11.5 1.0 5.4 66 2.8 E 50 61 27 33 1031.5 - 0.0
21/12:30am 11.5 0.9 5.2 65 2.9 E 50 63 27 34 1031.8 - 0.0
21/12:00am 11.5 0.6 5.6 67 2.7 E 52 63 28 34 1032.0 1032.0 0.0
 
Date/Time
EDT
Temp
°C
App
Temp
°C
Dew
Point
Rel
Hum
%
Delta-T
°C
Wind Press
QNH
hPa
Press
MSL
hPa
Rain
since 9 am
mm
Dir
 
Spd
km/h
Gust
km/h
Spd
kts
Gust
kts
20/11:30pm 11.4 0.5 5.5 67 2.7 E 52 61 28 33 1032.2 - 0.0
20/11:00pm 11.3 0.4 5.4 67 2.7 E 52 61 28 33 1032.2 - 0.0
20/10:30pm 11.4 0.1 5.5 67 2.7 E 54 63 29 34 1032.3 - 0.0
20/10:00pm 11.3 0.7 5.0 65 2.9 E 50 63 27 34 1032.2 - 0.0
20/09:30pm 11.4 0.2 5.7 68 2.7 E 54 63 29 34 1032.1 - 0.0
20/09:00pm 11.3 0.7 5.2 66 2.8 E 50 59 27 32 1032.0 1032.0 0.0
20/08:30pm 11.3 0.5 5.8 69 2.6 E 52 59 28 32 1031.8 - 0.0
20/08:00pm 11.3 0.7 5.0 65 2.9 E 50 59 27 32 1031.6 - 0.0
20/07:30pm 11.1 1.2 5.0 66 2.8 E 46 57 25 31 1031.7 - 0.0
20/07:00pm 11.4 1.3 5.7 68 2.7 E 48 57 26 31 1031.5 - 0.0
20/06:30pm 11.7 1.6 5.8 67 2.8 E 48 57 26 31 1031.4 - 0.0
20/06:00pm 12.1 1.9 5.0 62 3.3 E 48 56 26 30 1031.4 1031.4 0.0
20/05:30pm 12.5 3.0 5.0 60 3.5 E 44 54 24 29 1031.4 - 0.0
20/05:00pm 13.0 3.6 5.4 60 3.6 E 44 52 24 28 1031.4 - 0.0
20/04:30pm 13.3 3.9 5.5 59 3.7 E 44 54 24 29 1031.3 - 0.0
20/04:00pm 13.8 4.5 5.9 59 3.8 E 44 50 24 27 1031.4 - 0.0
20/03:30pm 13.8 4.4 5.4 57 4.0 E 44 52 24 28 1031.6 - 0.0
20/03:00pm 14.2 4.9 6.1 58 3.9 E 44 50 24 27 1031.8 1031.8 0.0
20/02:30pm 14.0 4.6 5.6 57 4.0 E 44 52 24 28 1031.9 - 0.0
20/02:00pm 14.2 5.0 5.6 56 4.1 E 43 48 23 26 1032.1 - 0.0
20/01:30pm 14.3 5.3 6.2 58 3.9 E 43 48 23 26 1032.2 - 0.0
20/01:00pm 14.2 5.0 5.6 56 4.1 E 43 48 23 26 1032.2 - 0.0
20/12:30pm 14.3 5.2 5.7 56 4.1 E 43 50 23 27 1032.3 - 0.0
20/12:00pm 14.1 5.3 5.7 57 4.0 E 41 48 22 26 1032.4 1032.5 0.0
20/11:30am 13.6 4.8 5.7 59 3.7 E 41 46 22 25 1032.6 - 0.0
20/11:00am 13.4 4.4 4.8 56 4.0 E 41 46 22 25 1032.9 - 0.0
20/10:30am 13.0 3.8 3.7 53 4.2 ESE 41 46 22 25 1032.8 - 0.0
20/10:00am 12.6 3.6 4.3 57 3.8 ESE 41 48 22 26 1032.7 - 0.0
20/09:30am 12.3 3.1 3.3 54 4.0 ESE 41 46 22 25 1032.3 - 0.0
20/09:00am 12.6 3.6 4.6 58 3.6 E 41 48 22 26 1031.9 1031.9 0.0
20/08:30am 11.4 4.7 3.7 59 3.4 ESE 28 33 15 18 1031.7 - 0.0
20/08:00am 11.8 5.1 3.6 57 3.7 SE 28 33 15 18 1031.6 - 0.0
20/07:30am 11.0 4.2 3.1 58 3.5 SE 28 33 15 18 1031.2 - 0.0
20/07:00am 10.0 2.5 3.5 64 2.9 SE 32 39 17 21 1030.5 - 0.0
20/06:30am 9.6 1.6 3.8 67 2.6 SE 35 41 19 22 1030.2 - 0.0
20/06:00am 9.9 2.6 4.7 70 2.3 SE 32 39 17 21 1030.0 1030.0 0.0
20/05:30am 9.5 3.4 4.7 72 2.2 SSE 26 32 14 17 1029.6 - 0.0
20/05:00am 9.6 3.5 4.6 71 2.2 SSE 26 33 14 18 1029.2 - 0.0
20/04:30am 9.5 3.0 4.5 71 2.2 S 28 35 15 19 1029.0 - 0.0
20/04:00am 9.6 3.4 4.2 69 2.4 SSW 26 35 14 19 1029.0 - 0.0
20/03:30am 9.8 1.8 4.0 67 2.6 SW 35 48 19 26 1028.9 - 0.0
20/03:10am 10.2 3.0 5.2 71 2.3 SSW 32 50 17 27 1028.5 - 0.0
20/03:00am 10.1 2.9 5.1 71 2.3 SW 32 46 17 25 1028.5 1028.6 0.0
20/02:30am 10.3 1.1 5.5 72 2.2 SW 43 48 23 26 1028.5 - 0.0
20/02:00am 10.3 1.2 5.7 73 2.1 SW 43 48 23 26 1028.1 - 0.0
20/01:30am 10.5 0.8 5.9 73 2.1 SW 46 54 25 29 1027.8 - 0.0
20/01:00am 10.4 -0.7 6.2 75 2.0 SW 54 61 29 33 1027.6 - 0.0
20/12:30am 10.5 -0.9 6.6 77 1.8 SW 56 63 30 34 1027.1 - 0.0
20/12:00am 10.6 -0.9 6.9 78 1.7 SW 57 67 31 36 1026.5 1026.6 0.0
 
Date/Time
EDT
Temp
°C
App
Temp
°C
Dew
Point
Rel
Hum
%
Delta-T
°C
Wind Press
QNH
hPa
Press
MSL
hPa
Rain
since 9 am
mm
Dir
 
Spd
km/h
Gust
km/h
Spd
kts
Gust
kts
19/11:30pm 10.8 -1.5 7.1 78 1.8 SW 61 69 33 37 1026.1 - 0.0
19/11:00pm 11.2 -1.8 7.3 77 1.9 SW 65 76 35 41 1026.1 - 0.0
19/10:41pm 11.3 0.9 7.6 78 1.8 SW 52 70 28 38 1025.7 - 0.0
19/10:30pm 11.4 0.9 7.3 76 2.0 SW 52 65 28 35 1025.7 - 0.0
19/10:00pm 11.8 0.6 7.5 75 2.1 SW 56 67 30 36 1025.5 - 0.0
19/09:30pm 11.9 2.5 8.7 81 1.6 SW 48 59 26 32 1024.7 - 0.0
19/09:00pm 12.2 3.7 9.2 82 1.5 WSW 44 54 24 29 1023.9 1023.9 0.0
19/08:30pm 12.4 1.6 10.0 85 1.2 SW 57 69 31 37 1023.1 - 0.0
19/08:00pm 12.6 3.2 10.1 85 1.3 WSW 50 65 27 35 1022.0 - 0.0
19/07:30pm 12.8 2.8 10.9 88 1.0 WSW 54 65 29 35 1021.1 - 0.0
19/07:00pm 13.3 3.4 11.0 86 1.2 WSW 54 63 29 34 1020.5 - 0.0
19/06:30pm 13.5 3.6 11.2 86 1.2 WSW 54 61 29 33 1019.9 - 0.0
19/06:00pm 13.9 5.5 10.9 82 1.6 WSW 46 52 25 28 1019.9 1019.9 0.0
19/05:30pm 15.3 8.8 11.7 79 2.0 WSW 37 44 20 24 1019.2 - 0.0

Other Formats:

Comma delimited format used in spreadsheet applications
http://www.bom.gov.au/fwo/IDV60801/IDV60801.94949.axf

JavaScript Object Notation format (JSON) in row-major order
http://www.bom.gov.au/fwo/IDV60801/IDV60801.94949.json